KNPA/NPA METAR and TAF weather

Enter ICAO airport designator
Station Type Date Time Source
KNPA METAR 2019/02/16 01:56 UTC NOAA

KNPA 160156Z 19006KT 10SM BKN047 18/17 A2985 RMK AO2 SLP110 T01780172


Station Type Date Time Source
KNPA Decoded METAR 2019/02/16 01:56 UTC NOAA

Pensacola, Naval Air Station, FL, United States (KNPA) 30-21-22N 087-19-24W 10M
Feb 15, 2019 - 08:56 PM EST / 2019.02.16 0156 UTC
Wind: from the S (190 degrees) at 7 MPH (6 KT):0
Visibility: 10 mile(s):0
Sky conditions: mostly cloudy
Temperature: 64.0 F (17.8 C)
Dew Point: 63.0 F (17.2 C)
Relative Humidity: 96%
Pressure (altimeter): 29.85 in. Hg (1010 hPa)
ob: KNPA 160156Z 19006KT 10SM BKN047 18/17 A2985 RMK AO2 SLP110 T01780172
cycle: 2

Station Type Date Time Source
KNPA TAF 2019/02/15 23:57 UTC NOAA

TAF TAF KNPA 1523/1623 19008KT 9999 BKN050 OVC120 QNH2982INS
FM160600 22007KT 9999 VCSH FEW012 OVC025 QNH2980INS
FM160900 21007KT 6000 BR VCSH SCT009 OVC015 QNH2977INS
TEMPO 1612/1617 4800 RA BR BKN007
FM161700 23007KT 9999 BKN015 OVC050 QNH2970INS AUTOMATED SENSOR METWTCH 1603 TIL 1615 T18/1610Z T23/1618Z FN20034


Example: see airport list